createdAt,value
2022-09-27T00:03:37.004Z,2.28
2022-09-27T00:06:09.037Z,2.00
2022-09-27T00:08:37.203Z,1.60
2022-09-27T00:11:09.478Z,1.90
2022-09-27T00:13:36.594Z,3.35
2022-09-27T00:16:05.951Z,2.47
2022-09-27T00:18:35.214Z,3.25
2022-09-27T00:21:07.185Z,16.33
2022-09-27T00:23:34.973Z,17.90
2022-09-27T00:26:02.523Z,60.97
2022-09-27T00:28:31.052Z,53.70
2022-09-27T00:30:59.675Z,46.03
2022-09-27T00:33:27.498Z,50.72
2022-09-27T00:35:54.984Z,39.00
2022-09-27T00:38:25.325Z,33.30
2022-09-27T00:40:53.957Z,31.25
2022-09-27T00:43:42.330Z,32.42
2022-09-27T00:46:09.579Z,35.75
2022-09-27T00:48:38.498Z,29.15
2022-09-27T00:51:09.079Z,26.55
2022-09-27T00:56:18.781Z,12.52
2022-09-27T00:58:52.449Z,9.88
2022-09-27T01:01:19.977Z,10.50
2022-09-27T01:04:08.121Z,10.85
2022-09-27T01:06:35.735Z,8.32
2022-09-27T01:09:07.365Z,6.18
2022-09-27T01:12:01.480Z,3.05
2022-09-27T01:15:01.203Z,2.97
2022-09-27T01:18:25.865Z,2.90
2022-09-27T01:21:31.959Z,3.97
2022-09-27T01:24:31.713Z,4.15
2022-09-27T01:27:17.361Z,3.70
2022-09-27T01:30:10.351Z,2.38
2022-09-27T01:32:47.872Z,2.05
2022-09-27T01:35:23.116Z,1.92
2022-09-27T01:38:16.622Z,1.27
2022-09-27T01:40:50.777Z,1.95
2022-09-27T01:43:59.418Z,1.50
2022-09-27T01:46:40.607Z,1.75
2022-09-27T01:49:31.013Z,2.08
2022-09-27T01:52:02.538Z,1.27
2022-09-27T01:54:41.166Z,1.10
2022-09-27T01:57:37.955Z,1.40
2022-09-27T02:00:11.153Z,1.33
2022-09-27T02:02:53.493Z,1.48
2022-09-27T02:05:54.028Z,1.48
2022-09-27T02:09:04.830Z,1.15
2022-09-27T02:11:58.108Z,0.93
2022-09-27T02:14:58.706Z,1.13
2022-09-27T02:18:02.503Z,1.42
2022-09-27T02:20:41.456Z,1.00
2022-09-27T02:23:09.894Z,1.10
2022-09-27T02:28:28.448Z,1.40
2022-09-27T02:30:56.458Z,1.40
2022-09-27T02:33:33.839Z,1.00
2022-09-27T02:36:01.445Z,1.50
2022-09-27T02:38:29.177Z,1.23
2022-09-27T02:40:57.967Z,1.20
2022-09-27T02:43:33.291Z,1.27
2022-09-27T02:46:29.933Z,1.48
2022-09-27T02:49:31.784Z,1.40
2022-09-27T02:52:14.485Z,1.20
2022-09-27T02:54:44.839Z,1.05
2022-09-27T02:57:49.543Z,1.38
2022-09-27T03:01:12.569Z,1.30
2022-09-27T03:04:27.261Z,1.77
2022-09-27T03:06:56.759Z,1.30
2022-09-27T03:09:29.066Z,1.30
2022-09-27T03:11:57.745Z,2.05
2022-09-27T03:14:26.259Z,1.77
2022-09-27T03:17:05.353Z,1.67
2022-09-27T03:19:52.187Z,1.85
2022-09-27T03:22:42.572Z,1.83
2022-09-27T03:25:09.937Z,1.67
2022-09-27T03:27:37.243Z,2.13
2022-09-27T03:30:06.622Z,2.38
2022-09-27T03:32:34.283Z,1.77
2022-09-27T03:35:22.276Z,1.75
2022-09-27T03:37:49.694Z,1.42
2022-09-27T03:40:17.420Z,1.70
2022-09-27T03:42:49.478Z,1.45
2022-09-27T03:45:17.984Z,1.20
2022-09-27T03:47:45.573Z,2.45
2022-09-27T03:50:13.143Z,1.33
2022-09-27T03:52:45.696Z,1.80
2022-09-27T03:55:13.303Z,1.38
2022-09-27T03:57:44.455Z,2.05
2022-09-27T04:00:15.332Z,1.40
2022-09-27T04:02:43.166Z,1.80
2022-09-27T04:05:27.008Z,1.48
2022-09-27T04:07:57.835Z,4.25
2022-09-27T04:10:25.459Z,1.50
2022-09-27T04:12:53.875Z,1.10
2022-09-27T04:15:25.518Z,1.63
2022-09-27T04:18:12.761Z,1.42
2022-09-27T04:20:49.539Z,2.00
2022-09-27T04:23:17.119Z,1.45
2022-09-27T04:25:52.388Z,1.80
2022-09-27T04:28:41.515Z,1.50
2022-09-27T04:31:09.932Z,1.95
2022-09-27T04:34:05.065Z,2.20
2022-09-27T04:36:35.384Z,1.35
2022-09-27T04:39:08.465Z,2.20
2022-09-27T04:41:38.472Z,1.50
2022-09-27T04:44:06.654Z,1.40
2022-09-27T04:46:35.188Z,1.10
2022-09-27T04:49:03.720Z,1.67
2022-09-27T04:51:33.572Z,1.50
2022-09-27T04:54:00.791Z,1.20
2022-09-27T04:56:33.752Z,1.00
2022-09-27T04:59:06.787Z,0.98
2022-09-27T05:01:37.204Z,1.20
2022-09-27T05:04:27.733Z,1.25
2022-09-27T05:06:57.301Z,0.80
2022-09-27T05:09:35.444Z,0.80
2022-09-27T05:12:06.074Z,1.10
2022-09-27T05:14:37.629Z,0.75
2022-09-27T05:17:31.507Z,1.10
2022-09-27T05:20:19.631Z,0.90
2022-09-27T05:22:53.989Z,0.90
2022-09-27T05:25:22.428Z,0.98
2022-09-27T05:27:50.715Z,0.98
2022-09-27T05:30:26.265Z,1.10
2022-09-27T05:33:04.566Z,1.02
2022-09-27T05:35:35.815Z,0.95
2022-09-27T05:38:03.686Z,1.23
2022-09-27T05:40:42.644Z,1.65
2022-09-27T05:43:12.123Z,1.20
2022-09-27T05:45:39.953Z,1.40
2022-09-27T05:48:08.602Z,0.80
2022-09-27T05:50:45.140Z,1.15
2022-09-27T05:53:13.523Z,0.70
2022-09-27T05:55:42.611Z,0.87
2022-09-27T05:58:13.765Z,0.80
2022-09-27T06:01:08.418Z,0.80
2022-09-27T06:03:55.609Z,0.98
2022-09-27T06:06:46.457Z,1.00
2022-09-27T06:09:15.910Z,0.70
2022-09-27T06:11:45.644Z,0.85
2022-09-27T06:14:15.690Z,0.90
2022-09-27T06:16:58.659Z,0.70
2022-09-27T06:19:30.415Z,0.88
2022-09-27T06:21:58.193Z,0.82
2022-09-27T06:24:32.762Z,0.80
2022-09-27T06:27:07.214Z,0.80
2022-09-27T06:29:48.196Z,1.00
2022-09-27T06:32:30.689Z,0.85
2022-09-27T06:35:13.888Z,0.80
2022-09-27T06:37:41.931Z,0.85
2022-09-27T06:40:09.878Z,1.00
2022-09-27T06:43:09.616Z,0.77
2022-09-27T06:45:55.503Z,1.00
2022-09-27T06:48:42.692Z,1.30
2022-09-27T06:51:20.628Z,0.75
2022-09-27T06:53:50.007Z,0.95
2022-09-27T06:56:17.413Z,0.90
2022-09-27T06:59:12.508Z,0.98
2022-09-27T07:02:00.604Z,0.80
2022-09-27T07:04:45.982Z,0.82
2022-09-27T07:07:19.130Z,0.75
2022-09-27T07:09:48.821Z,0.90
2022-09-27T07:12:15.934Z,0.90
2022-09-27T07:14:43.271Z,1.10
2022-09-27T07:17:16.228Z,0.90
2022-09-27T07:19:48.706Z,1.00
2022-09-27T07:22:16.256Z,0.93
2022-09-27T07:24:46.957Z,1.20
2022-09-27T07:27:15.758Z,1.20
2022-09-27T07:29:42.861Z,1.02
2022-09-27T07:32:11.062Z,0.88
2022-09-27T07:34:39.316Z,0.88
2022-09-27T07:37:07.512Z,1.00
2022-09-27T07:39:39.206Z,1.15
2022-09-27T07:42:09.443Z,0.88
2022-09-27T07:44:42.122Z,1.30
2022-09-27T07:47:27.839Z,1.10
2022-09-27T07:50:08.328Z,1.10
2022-09-27T07:52:58.430Z,1.40
2022-09-27T07:55:29.495Z,1.30
2022-09-27T08:00:34.355Z,1.13
2022-09-27T08:03:07.053Z,1.63
2022-09-27T08:05:36.596Z,1.70
2022-09-27T08:08:05.229Z,1.40
2022-09-27T08:10:34.178Z,2.05
2022-09-27T08:13:03.782Z,1.33
2022-09-27T08:15:39.224Z,1.73
2022-09-27T08:18:11.421Z,1.90
2022-09-27T08:21:01.104Z,2.15
2022-09-27T08:23:34.882Z,1.98
2022-09-27T08:26:20.561Z,2.30
2022-09-27T08:29:03.661Z,2.55
2022-09-27T08:31:33.807Z,3.05
2022-09-27T08:34:04.257Z,2.75
2022-09-27T08:36:36.083Z,3.55
2022-09-27T08:39:04.929Z,3.38
2022-09-27T08:41:47.707Z,4.28
2022-09-27T08:44:20.889Z,4.30
2022-09-27T08:47:30.232Z,4.25
2022-09-27T08:50:29.641Z,4.88
2022-09-27T08:53:28.819Z,4.75
2022-09-27T08:55:59.017Z,5.47
2022-09-27T08:58:36.069Z,5.15
2022-09-27T09:01:16.841Z,5.93
2022-09-27T09:04:04.576Z,6.65
2022-09-27T09:07:01.912Z,6.47
2022-09-27T09:09:36.707Z,6.43
2022-09-27T09:12:47.836Z,6.85
2022-09-27T09:15:54.804Z,7.38
2022-09-27T09:18:48.998Z,6.72
2022-09-27T09:21:49.943Z,7.05
2022-09-27T09:24:19.744Z,7.13
2022-09-27T09:27:06.366Z,7.25
2022-09-27T09:30:01.643Z,6.20
2022-09-27T09:32:45.575Z,6.20
2022-09-27T09:35:20.072Z,5.95
2022-09-27T09:37:53.929Z,5.53
2022-09-27T09:41:09.707Z,6.47
2022-09-27T09:43:51.873Z,6.40
2022-09-27T09:46:26.044Z,6.05
2022-09-27T09:49:04.732Z,5.65
2022-09-27T09:51:42.679Z,6.18
2022-09-27T09:54:16.549Z,5.80
2022-09-27T09:56:54.509Z,5.00
2022-09-27T09:59:28.156Z,4.80
2022-09-27T10:02:03.639Z,4.70
2022-09-27T10:04:33.144Z,4.50
2022-09-27T10:07:02.682Z,4.43
2022-09-27T10:09:35.005Z,4.28
2022-09-27T10:12:24.961Z,3.97
2022-09-27T10:14:54.540Z,5.03
2022-09-27T10:19:56.871Z,3.65
2022-09-27T10:22:28.529Z,4.13
2022-09-27T10:25:03.541Z,3.90
2022-09-27T10:27:54.353Z,3.72
2022-09-27T10:30:38.478Z,3.40
2022-09-27T10:33:19.187Z,3.25
2022-09-27T10:35:54.371Z,3.35
2022-09-27T10:38:35.078Z,2.97
2022-09-27T10:41:25.793Z,3.28
2022-09-27T10:44:19.553Z,3.10
2022-09-27T10:46:54.600Z,3.00
2022-09-27T10:49:45.047Z,2.88
2022-09-27T10:52:36.105Z,2.83
2022-09-27T10:55:25.993Z,3.05
2022-09-27T10:57:56.518Z,2.90
2022-09-27T11:00:29.682Z,3.13
2022-09-27T11:03:01.604Z,2.80
2022-09-27T11:05:39.738Z,2.83
2022-09-27T11:08:19.696Z,2.78
2022-09-27T11:11:24.161Z,2.35
2022-09-27T11:14:04.177Z,1.98
2022-09-27T11:16:41.576Z,1.88
2022-09-27T11:19:28.234Z,1.48
2022-09-27T11:22:04.505Z,1.33
2022-09-27T11:24:50.669Z,1.60
2022-09-27T11:27:37.850Z,2.35
2022-09-27T11:30:10.071Z,1.65
2022-09-27T11:33:09.193Z,1.55
2022-09-27T11:36:04.950Z,1.60
2022-09-27T11:39:01.773Z,1.88
2022-09-27T11:41:37.019Z,2.10
2022-09-27T11:47:18.426Z,0.90
2022-09-27T11:49:57.021Z,1.17
2022-09-27T11:52:37.007Z,1.05
2022-09-27T11:55:13.335Z,0.95
2022-09-27T11:57:57.614Z,0.88
2022-09-27T12:00:50.604Z,1.67
2022-09-27T12:03:27.859Z,1.10
2022-09-27T12:06:14.869Z,0.90
2022-09-27T12:08:59.425Z,0.93
2022-09-27T12:11:30.689Z,0.95
2022-09-27T12:14:02.453Z,0.60
2022-09-27T12:16:32.371Z,0.60
2022-09-27T12:19:04.658Z,0.40
2022-09-27T12:21:50.902Z,0.40
2022-09-27T12:24:23.335Z,0.70
2022-09-27T12:27:24.202Z,0.70
2022-09-27T12:29:56.512Z,0.75
2022-09-27T12:32:34.222Z,0.70
2022-09-27T12:35:15.403Z,0.85
2022-09-27T12:38:05.636Z,0.85
2022-09-27T12:43:20.474Z,0.47
2022-09-27T12:46:10.781Z,0.68
2022-09-27T12:48:45.087Z,0.52
2022-09-27T12:51:15.112Z,0.45
2022-09-27T12:54:00.786Z,0.57
2022-09-27T12:56:52.097Z,0.38
2022-09-27T12:59:58.163Z,0.32
2022-09-27T13:02:57.473Z,0.40
2022-09-27T13:06:05.677Z,0.43
2022-09-27T13:08:58.329Z,0.40
2022-09-27T13:11:58.658Z,0.40
2022-09-27T13:14:30.007Z,0.30
2022-09-27T13:16:57.965Z,0.30
2022-09-27T13:19:43.718Z,0.30
2022-09-27T13:22:28.728Z,0.30
2022-09-27T13:25:58.646Z,0.30
2022-09-27T13:29:03.812Z,0.30
2022-09-27T13:32:16.021Z,0.20
2022-09-27T13:35:26.399Z,0.30
2022-09-27T13:38:01.405Z,0.20
2022-09-27T13:40:43.178Z,0.32
2022-09-27T13:43:10.240Z,0.30
2022-09-27T13:45:57.494Z,0.30
2022-09-27T13:48:38.704Z,0.40
2022-09-27T13:51:31.602Z,0.30
2022-09-27T13:54:10.043Z,0.43
2022-09-27T13:56:46.769Z,0.50
2022-09-27T13:59:24.989Z,0.35
2022-09-27T14:02:29.521Z,0.30
2022-09-27T14:04:58.714Z,1.13
2022-09-27T14:07:34.063Z,0.32
2022-09-27T14:10:04.452Z,0.40
2022-09-27T14:12:39.721Z,0.30
2022-09-27T14:15:18.208Z,0.50
2022-09-27T14:17:46.193Z,0.35
2022-09-27T14:20:36.856Z,0.80
2022-09-27T14:23:13.512Z,0.68
2022-09-27T14:25:55.132Z,0.55
2022-09-27T14:28:29.769Z,0.80
2022-09-27T14:31:24.926Z,0.60
2022-09-27T14:34:13.847Z,0.63
2022-09-27T14:37:04.565Z,0.60
2022-09-27T14:39:39.227Z,0.60
2022-09-27T14:42:25.120Z,0.63
2022-09-27T14:44:53.668Z,0.85
2022-09-27T14:47:24.951Z,0.60
2022-09-27T14:49:53.566Z,0.70
2022-09-27T14:52:31.596Z,0.90
2022-09-27T14:55:07.861Z,1.08
2022-09-27T14:57:37.253Z,0.80
2022-09-27T15:00:18.156Z,1.00
2022-09-27T15:02:45.617Z,0.90
2022-09-27T15:05:19.269Z,0.98
2022-09-27T15:07:47.581Z,1.02
2022-09-27T15:10:21.690Z,1.05
2022-09-27T15:12:53.315Z,1.25
2022-09-27T15:15:26.095Z,1.10
2022-09-27T15:17:54.667Z,1.50
2022-09-27T15:20:34.654Z,1.90
2022-09-27T15:25:43.464Z,2.28
2022-09-27T15:28:19.212Z,1.80
2022-09-27T15:30:56.133Z,1.95
2022-09-27T15:33:35.118Z,2.00
2022-09-27T15:36:11.569Z,1.50
2022-09-27T15:38:47.532Z,1.70
2022-09-27T15:44:49.427Z,1.90
2022-09-27T15:47:35.436Z,1.90
2022-09-27T15:50:44.795Z,1.98
2022-09-27T15:53:12.198Z,1.77
2022-09-27T15:55:44.174Z,2.05
2022-09-27T15:58:20.935Z,1.70
2022-09-27T16:00:57.232Z,1.45
2022-09-27T16:03:26.534Z,1.55
2022-09-27T16:05:56.638Z,1.85
2022-09-27T16:08:24.819Z,1.50
2022-09-27T16:10:56.638Z,1.20
2022-09-27T16:13:32.435Z,1.33
2022-09-27T16:16:02.282Z,0.90
2022-09-27T16:18:30.838Z,1.17
2022-09-27T16:20:59.636Z,1.02
2022-09-27T16:23:26.747Z,1.20
2022-09-27T16:25:55.673Z,1.27
2022-09-27T16:28:24.331Z,1.40
2022-09-27T16:30:52.186Z,1.65
2022-09-27T16:33:19.772Z,1.23
2022-09-27T16:35:48.554Z,1.40
2022-09-27T16:38:15.860Z,1.40
2022-09-27T16:40:46.387Z,1.63
2022-09-27T16:45:41.443Z,1.73
2022-09-27T16:48:08.561Z,1.10
2022-09-27T16:50:54.489Z,0.90
2022-09-27T16:53:22.339Z,1.00
2022-09-27T16:55:49.803Z,1.13
2022-09-27T16:58:17.087Z,0.98
2022-09-27T17:00:45.579Z,1.65
2022-09-27T17:03:12.703Z,1.00
2022-09-27T17:05:41.657Z,1.10
2022-09-27T17:08:09.148Z,1.10
2022-09-27T17:10:38.801Z,1.08
2022-09-27T17:13:07.301Z,1.30
2022-09-27T17:15:34.329Z,1.15
2022-09-27T17:18:01.807Z,1.08
2022-09-27T17:20:29.372Z,0.98
2022-09-27T17:22:56.463Z,1.30
2022-09-27T17:25:23.884Z,1.20
2022-09-27T17:27:52.554Z,1.10
2022-09-27T17:30:21.471Z,1.00
2022-09-27T17:32:49.840Z,1.23
2022-09-27T17:35:16.986Z,1.35
2022-09-27T17:37:44.905Z,1.50
2022-09-27T17:40:12.521Z,2.63
2022-09-27T17:42:40.704Z,1.98
2022-09-27T17:45:08.965Z,1.60
2022-09-27T17:47:54.622Z,1.40
2022-09-27T17:50:25.148Z,1.30
2022-09-27T17:52:54.589Z,1.20
2022-09-27T17:55:26.046Z,1.00
2022-09-27T17:57:54.291Z,1.00
2022-09-27T18:00:23.592Z,1.05
2022-09-27T18:02:52.229Z,1.08
2022-09-27T18:05:21.880Z,1.30
2022-09-27T18:07:49.231Z,1.93
2022-09-27T18:10:17.880Z,1.45
2022-09-27T18:12:45.240Z,2.00
2022-09-27T18:15:13.135Z,1.50
2022-09-27T18:17:40.934Z,1.80
2022-09-27T18:20:09.119Z,2.08
2022-09-27T18:22:36.531Z,1.98
2022-09-27T18:25:05.347Z,2.15
2022-09-27T18:27:34.653Z,2.10
2022-09-27T18:30:03.589Z,1.88
2022-09-27T18:32:30.869Z,2.20
2022-09-27T18:34:58.121Z,2.50
2022-09-27T18:37:27.222Z,2.22
2022-09-27T18:39:55.669Z,2.42
2022-09-27T18:42:24.034Z,2.45
2022-09-27T18:44:54.616Z,2.60
2022-09-27T18:47:23.732Z,2.85
2022-09-27T18:49:53.418Z,2.67
2022-09-27T18:52:20.748Z,3.30
2022-09-27T18:54:49.561Z,2.95
2022-09-27T18:57:16.630Z,2.92
2022-09-27T18:59:43.967Z,2.80
2022-09-27T19:02:14.365Z,3.30
2022-09-27T19:04:42.827Z,3.33
2022-09-27T19:07:10.266Z,3.17
2022-09-27T19:09:37.493Z,3.22
2022-09-27T19:12:05.535Z,3.53
2022-09-27T19:14:32.789Z,3.83
2022-09-27T19:17:00.108Z,3.92
2022-09-27T19:19:27.238Z,3.53
2022-09-27T19:21:54.464Z,4.03
2022-09-27T19:24:22.125Z,4.10
2022-09-27T19:26:53.846Z,4.13
2022-09-27T19:29:24.559Z,4.80
2022-09-27T19:31:52.152Z,4.57
2022-09-27T19:34:19.337Z,4.57
2022-09-27T19:36:46.450Z,4.72
2022-09-27T19:39:13.696Z,5.35
2022-09-27T19:41:41.703Z,5.68
2022-09-27T19:44:10.143Z,6.57
2022-09-27T19:46:37.758Z,6.45
2022-09-27T19:49:04.753Z,7.43
2022-09-27T19:51:32.697Z,7.63
2022-09-27T19:53:59.940Z,7.70
2022-09-27T19:56:27.293Z,8.27
2022-09-27T19:58:55.991Z,8.52
2022-09-27T20:01:25.100Z,8.82
2022-09-27T20:03:55.902Z,8.63
2022-09-27T20:06:26.488Z,8.50
2022-09-27T20:08:53.876Z,9.23
2022-09-27T20:11:24.090Z,8.38
2022-09-27T20:13:53.739Z,8.82
2022-09-27T20:16:23.742Z,8.20
2022-09-27T20:18:56.357Z,8.20
2022-09-27T20:21:26.537Z,8.60
2022-09-27T20:23:56.437Z,7.00
2022-09-27T20:26:25.594Z,6.57
2022-09-27T20:28:57.765Z,6.88
2022-09-27T20:31:56.963Z,6.45
2022-09-27T20:34:30.363Z,6.43
2022-09-27T20:36:57.654Z,5.78
2022-09-27T20:39:24.937Z,6.55
2022-09-27T20:41:53.772Z,6.03
2022-09-27T20:44:23.834Z,5.97
2022-09-27T20:46:52.442Z,6.65
2022-09-27T20:49:20.485Z,5.95
2022-09-27T20:51:51.914Z,5.22
2022-09-27T20:54:19.212Z,5.40
2022-09-27T20:56:48.210Z,5.53
2022-09-27T20:59:18.635Z,5.63
2022-09-27T21:04:19.557Z,5.05
2022-09-27T21:06:47.409Z,4.93
2022-09-27T21:09:19.217Z,5.20
2022-09-27T21:11:52.294Z,5.22
2022-09-27T21:14:19.862Z,5.15
2022-09-27T21:16:46.960Z,5.57
2022-09-27T21:19:14.578Z,5.00
2022-09-27T21:21:41.990Z,5.15
2022-09-27T21:24:09.432Z,5.07
2022-09-27T21:26:37.119Z,4.72
2022-09-27T21:29:09.722Z,4.45
2022-09-27T21:31:38.424Z,3.88
2022-09-27T21:34:06.493Z,4.63
2022-09-27T21:36:36.167Z,4.53
2022-09-27T21:39:08.973Z,4.25
2022-09-27T21:41:38.861Z,4.13
2022-09-27T21:44:06.681Z,4.13
2022-09-27T21:46:34.253Z,4.78
2022-09-27T21:49:02.438Z,4.32
2022-09-27T21:51:37.089Z,4.75
2022-09-27T21:54:07.417Z,4.45
2022-09-27T21:56:39.742Z,4.25
2022-09-27T21:59:09.613Z,5.00
2022-09-27T22:01:37.245Z,5.07
2022-09-27T22:04:06.879Z,4.70
2022-09-27T22:06:36.885Z,5.30
2022-09-27T22:09:08.532Z,4.85
2022-09-27T22:11:40.201Z,5.22
2022-09-27T22:14:07.923Z,5.13
2022-09-27T22:16:35.343Z,5.38
2022-09-27T22:19:04.364Z,5.93
2022-09-27T22:21:34.519Z,5.63
2022-09-27T22:24:08.499Z,5.90
2022-09-27T22:26:38.295Z,5.90
2022-09-27T22:29:07.153Z,6.20
2022-09-27T22:31:35.270Z,6.40
2022-09-27T22:34:06.098Z,6.60
2022-09-27T22:36:34.563Z,6.80
2022-09-27T22:39:02.662Z,6.80
2022-09-27T22:41:30.640Z,7.10
2022-09-27T22:43:58.146Z,7.88
2022-09-27T22:46:26.081Z,7.78
2022-09-27T22:48:55.740Z,8.20
2022-09-27T22:51:24.145Z,8.18
2022-09-27T22:53:54.251Z,8.63
2022-09-27T22:56:22.201Z,9.18
2022-09-27T22:58:49.934Z,8.70
2022-09-27T23:01:23.373Z,8.75
2022-09-27T23:03:54.079Z,9.00
2022-09-27T23:06:23.356Z,9.35
2022-09-27T23:08:55.153Z,9.35
2022-09-27T23:11:23.758Z,10.02
2022-09-27T23:13:52.528Z,9.73
2022-09-27T23:16:24.683Z,9.70
2022-09-27T23:18:56.825Z,10.40
2022-09-27T23:21:26.226Z,10.20
2022-09-27T23:23:59.958Z,10.25
2022-09-27T23:26:28.197Z,10.95
2022-09-27T23:28:57.632Z,11.10
2022-09-27T23:31:25.406Z,10.60
2022-09-27T23:33:55.193Z,11.18
2022-09-27T23:36:27.050Z,12.13
2022-09-27T23:38:58.368Z,11.60
2022-09-27T23:41:26.141Z,12.38
2022-09-27T23:43:54.872Z,11.90
2022-09-27T23:46:22.882Z,12.48
2022-09-27T23:48:50.027Z,12.23
2022-09-27T23:51:17.037Z,12.50
2022-09-27T23:53:48.076Z,13.05
2022-09-27T23:56:16.745Z,12.23
2022-09-27T23:58:45.353Z,12.52
